createdAt,value
2023-04-01T00:00:34.351Z,31.62
2023-04-01T00:01:34.375Z,32.85
2023-04-01T00:02:34.408Z,34.05
2023-04-01T00:03:34.534Z,33.15
2023-04-01T00:04:34.414Z,35.77
2023-04-01T00:05:34.591Z,38.81
2023-04-01T00:06:34.373Z,36.66
2023-04-01T00:07:34.385Z,36.44
2023-04-01T00:08:34.389Z,36.44
2023-04-01T00:09:34.414Z,33.29
2023-04-01T00:10:34.683Z,38.59
2023-04-01T00:11:34.369Z,35.89
2023-04-01T00:12:34.370Z,35.96
2023-04-01T00:13:34.393Z,38.75
2023-04-01T00:14:34.394Z,35.34
2023-04-01T00:15:34.544Z,36.43
2023-04-01T00:16:34.427Z,40.96
2023-04-01T00:17:34.432Z,37.08
2023-04-01T00:18:34.393Z,37.65
2023-04-01T00:19:34.391Z,34.31
2023-04-01T00:20:34.404Z,33.97
2023-04-01T00:21:34.411Z,36.92
2023-04-01T00:22:34.387Z,33.59
2023-04-01T00:23:34.407Z,34.70
2023-04-01T00:24:34.394Z,36.20
2023-04-01T00:25:34.677Z,35.89
2023-04-01T00:26:34.413Z,36.14
2023-04-01T00:27:34.397Z,33.89
2023-04-01T00:28:34.403Z,38.25
2023-04-01T00:29:34.405Z,36.06
2023-04-01T00:30:34.405Z,35.16
2023-04-01T00:31:34.443Z,37.20
2023-04-01T00:32:34.538Z,40.80
2023-04-01T00:33:34.441Z,36.61
2023-04-01T00:34:34.429Z,38.03
2023-04-01T00:35:34.609Z,39.32
2023-04-01T00:36:34.450Z,39.77
2023-04-01T00:37:34.439Z,41.30
2023-04-01T00:38:34.459Z,42.14
2023-04-01T00:39:34.442Z,42.06
2023-04-01T00:40:34.445Z,43.01
2023-04-01T00:41:34.470Z,42.43
2023-04-01T00:42:34.418Z,44.09
2023-04-01T00:43:34.454Z,44.58
2023-04-01T00:44:34.451Z,49.18
2023-04-01T00:45:34.574Z,45.97
2023-04-01T00:46:34.479Z,47.03
2023-04-01T00:47:34.506Z,47.54
2023-04-01T00:48:34.476Z,47.76
2023-04-01T00:49:34.447Z,48.21
2023-04-01T00:50:34.438Z,48.50
2023-04-01T00:51:34.424Z,51.83
2023-04-01T00:52:34.441Z,49.98
2023-04-01T00:53:34.428Z,50.98
2023-04-01T00:54:34.428Z,53.22
2023-04-01T00:55:34.494Z,53.67
2023-04-01T00:56:34.448Z,52.46
2023-04-01T00:57:34.506Z,52.34
2023-04-01T00:58:34.451Z,51.19
2023-04-01T00:59:34.451Z,51.20
2023-04-01T01:00:34.473Z,51.66
2023-04-01T01:01:34.453Z,52.37
2023-04-01T01:02:34.531Z,53.84
2023-04-01T01:03:34.444Z,54.02
2023-04-01T01:04:34.461Z,51.61
2023-04-01T01:05:42.609Z,52.74
2023-04-01T01:06:35.472Z,52.82
2023-04-01T01:07:34.444Z,52.84
2023-04-01T01:08:34.420Z,52.75
2023-04-01T01:09:34.450Z,51.97
2023-04-01T01:10:34.406Z,49.37
2023-04-01T01:11:42.537Z,52.05
2023-04-01T01:12:35.401Z,52.10
2023-04-01T01:13:34.399Z,52.06
2023-04-01T01:14:34.383Z,52.30
2023-04-01T01:15:34.387Z,49.27
2023-04-01T01:16:34.404Z,47.22
2023-04-01T01:17:34.404Z,49.07
2023-04-01T01:18:34.363Z,51.83
2023-04-01T01:19:34.355Z,49.38
2023-04-01T01:20:34.337Z,49.52
2023-04-01T01:21:34.317Z,51.48
2023-04-01T01:22:34.342Z,51.81
2023-04-01T01:23:34.304Z,49.71
2023-04-01T01:24:34.320Z,45.66
2023-04-01T01:25:34.530Z,46.50
2023-04-01T01:26:34.309Z,46.20
2023-04-01T01:27:34.286Z,46.85
2023-04-01T01:28:34.271Z,46.11
2023-04-01T01:29:34.266Z,48.18
2023-04-01T01:30:34.302Z,47.74
2023-04-01T01:31:34.250Z,51.17
2023-04-01T01:32:34.268Z,52.59
2023-04-01T01:33:34.232Z,51.84
2023-04-01T01:34:34.240Z,53.40
2023-04-01T01:35:34.445Z,52.06
2023-04-01T01:36:34.245Z,52.07
2023-04-01T01:37:34.228Z,51.57
2023-04-01T01:38:34.206Z,52.27
2023-04-01T01:39:34.335Z,50.44
2023-04-01T01:40:34.201Z,50.45
2023-04-01T01:41:34.189Z,50.52
2023-04-01T01:42:34.187Z,50.17
2023-04-01T01:43:34.185Z,50.44
2023-04-01T01:44:34.155Z,51.65
2023-04-01T01:45:34.260Z,49.82
2023-04-01T01:46:34.202Z,49.77
2023-04-01T01:47:34.157Z,52.51
2023-04-01T01:48:34.137Z,53.85
2023-04-01T01:49:34.125Z,54.72
2023-04-01T01:50:34.110Z,57.19
2023-04-01T01:51:34.112Z,59.77
2023-04-01T01:52:34.127Z,56.93
2023-04-01T01:53:34.129Z,56.66
2023-04-01T01:54:34.119Z,56.74
2023-04-01T01:55:34.515Z,58.15
2023-04-01T01:56:34.143Z,60.18
2023-04-01T01:57:34.169Z,60.97
2023-04-01T01:58:34.143Z,61.21
2023-04-01T01:59:34.143Z,60.70
2023-04-01T02:00:34.133Z,60.56
2023-04-01T02:01:34.237Z,59.10
2023-04-01T02:02:34.173Z,60.17
2023-04-01T02:03:34.142Z,57.50
2023-04-01T02:04:34.214Z,59.61
2023-04-01T02:05:34.513Z,59.17
2023-04-01T02:06:34.141Z,59.17
2023-04-01T02:07:34.213Z,59.79
2023-04-01T02:08:34.141Z,59.46
2023-04-01T02:09:34.154Z,59.08
2023-04-01T02:10:34.161Z,58.09
2023-04-01T02:11:34.156Z,57.37
2023-04-01T02:12:34.160Z,58.12
2023-04-01T02:13:34.148Z,58.87
2023-04-01T02:14:34.183Z,58.60
2023-04-01T02:15:34.313Z,56.76
2023-04-01T02:16:34.166Z,56.17
2023-04-01T02:17:34.173Z,56.38
2023-04-01T02:18:34.207Z,57.61
2023-04-01T02:19:34.176Z,58.06
2023-04-01T02:20:34.209Z,57.57
2023-04-01T02:21:34.172Z,58.31
2023-04-01T02:22:34.176Z,56.57
2023-04-01T02:23:34.178Z,57.30
2023-04-01T02:24:34.220Z,56.26
2023-04-01T02:25:34.385Z,56.66
2023-04-01T02:26:34.206Z,56.06
2023-04-01T02:27:34.202Z,54.27
2023-04-01T02:28:34.234Z,50.68
2023-04-01T02:29:34.231Z,53.44
2023-04-01T02:30:34.218Z,56.88
2023-04-01T02:31:34.311Z,54.13
2023-04-01T02:32:34.392Z,54.49
2023-04-01T02:33:34.235Z,56.59
2023-04-01T02:34:34.254Z,55.61
2023-04-01T02:35:34.395Z,57.08
2023-04-01T02:36:34.254Z,56.19
2023-04-01T02:37:35.971Z,59.37
2023-04-01T02:38:34.258Z,57.33
2023-04-01T02:39:34.246Z,60.22
2023-04-01T02:40:34.270Z,60.02
2023-04-01T02:41:34.237Z,59.91
2023-04-01T02:42:34.230Z,59.09
2023-04-01T02:43:34.250Z,59.44
2023-04-01T02:44:34.230Z,61.05
2023-04-01T02:45:34.386Z,61.38
2023-04-01T02:46:34.235Z,59.24
2023-04-01T02:47:34.250Z,60.84
2023-04-01T02:48:34.180Z,57.47
2023-04-01T02:49:34.189Z,60.11
2023-04-01T02:50:34.168Z,62.34
2023-04-01T02:51:34.176Z,64.88
2023-04-01T02:52:34.157Z,64.21
2023-04-01T02:53:34.148Z,63.63
2023-04-01T02:54:34.168Z,63.39
2023-04-01T02:55:34.294Z,64.74
2023-04-01T02:56:34.148Z,65.56
2023-04-01T02:57:34.198Z,61.93
2023-04-01T02:58:34.121Z,60.86
2023-04-01T02:59:34.120Z,60.07
2023-04-01T03:00:34.113Z,62.86
2023-04-01T03:01:34.158Z,63.12
2023-04-01T03:02:34.151Z,61.69
2023-04-01T03:03:34.108Z,63.41
2023-04-01T03:04:34.077Z,63.86
2023-04-01T03:05:34.245Z,65.23
2023-04-01T03:06:34.092Z,63.68
2023-04-01T03:07:34.046Z,62.19
2023-04-01T03:08:34.039Z,60.67
2023-04-01T03:09:34.056Z,62.21
2023-04-01T03:10:34.039Z,63.82
2023-04-01T03:11:34.041Z,63.72
2023-04-01T03:12:34.028Z,62.89
2023-04-01T03:13:34.020Z,65.52
2023-04-01T03:14:34.004Z,65.94
2023-04-01T03:15:34.288Z,65.70
2023-04-01T03:16:34.086Z,65.79
2023-04-01T03:17:34.025Z,65.75
2023-04-01T03:18:33.986Z,64.29
2023-04-01T03:19:33.972Z,63.32
2023-04-01T03:20:33.960Z,63.53
2023-04-01T03:21:33.982Z,65.77
2023-04-01T03:22:33.942Z,64.22
2023-04-01T03:23:33.954Z,62.05
2023-04-01T03:24:33.958Z,61.87
2023-04-01T03:25:34.122Z,65.42
2023-04-01T03:26:33.916Z,63.95
2023-04-01T03:27:33.917Z,64.44
2023-04-01T03:28:33.914Z,62.42
2023-04-01T03:29:33.885Z,61.89
2023-04-01T03:30:33.931Z,65.47
2023-04-01T03:31:33.979Z,63.97
2023-04-01T03:32:33.895Z,61.71
2023-04-01T03:33:33.863Z,62.47
2023-04-01T03:34:33.868Z,62.47
2023-04-01T03:35:34.146Z,64.45
2023-04-01T03:36:33.956Z,63.33
2023-04-01T03:37:33.845Z,64.49
2023-04-01T03:38:33.831Z,65.01
2023-04-01T03:39:33.837Z,64.40
2023-04-01T03:40:33.832Z,63.44
2023-04-01T03:41:33.798Z,62.19
2023-04-01T03:42:33.852Z,61.56
2023-04-01T03:43:33.795Z,60.70
2023-04-01T03:44:33.786Z,61.75
2023-04-01T03:45:33.949Z,63.43
2023-04-01T03:46:33.779Z,65.48
2023-04-01T03:47:33.791Z,64.67
2023-04-01T03:48:33.741Z,66.45
2023-04-01T03:49:33.764Z,64.27
2023-04-01T03:50:33.729Z,65.66
2023-04-01T03:51:33.747Z,66.38
2023-04-01T03:52:33.729Z,66.34
2023-04-01T03:53:33.729Z,66.09
2023-04-01T03:54:33.709Z,66.59
2023-04-01T03:55:34.024Z,67.49
2023-04-01T03:56:33.695Z,68.82
2023-04-01T03:57:33.757Z,70.53
2023-04-01T03:58:33.695Z,70.37
2023-04-01T03:59:33.702Z,68.94
2023-04-01T04:00:33.668Z,68.62
2023-04-01T04:01:33.676Z,67.00
2023-04-01T04:02:33.764Z,66.86
2023-04-01T04:03:33.761Z,68.46
2023-04-01T04:04:33.719Z,67.29
2023-04-01T04:05:33.854Z,68.09
2023-04-01T04:06:33.651Z,65.02
2023-04-01T04:07:33.620Z,64.68
2023-04-01T04:08:33.642Z,65.94
2023-04-01T04:09:33.629Z,63.88
2023-04-01T04:10:33.620Z,66.45
2023-04-01T04:11:33.603Z,68.02
2023-04-01T04:12:33.611Z,70.82
2023-04-01T04:13:33.580Z,66.89
2023-04-01T04:14:33.591Z,65.36
2023-04-01T04:15:33.879Z,66.99
2023-04-01T04:16:33.594Z,69.92
2023-04-01T04:17:33.578Z,69.44
2023-04-01T04:18:33.546Z,70.85
2023-04-01T04:19:33.560Z,72.16
2023-04-01T04:20:33.535Z,71.97
2023-04-01T04:21:33.540Z,72.33
2023-04-01T04:22:33.514Z,71.66
2023-04-01T04:23:33.523Z,72.88
2023-04-01T04:24:33.504Z,73.51
2023-04-01T04:25:33.720Z,73.15
2023-04-01T04:26:33.507Z,73.32
2023-04-01T04:27:33.476Z,72.86
2023-04-01T04:28:33.465Z,73.05
2023-04-01T04:29:33.469Z,73.25
2023-04-01T04:30:33.506Z,74.53
2023-04-01T04:31:33.525Z,74.79
2023-04-01T04:32:33.456Z,75.40
2023-04-01T04:33:33.454Z,75.13
2023-04-01T04:34:33.438Z,73.95
2023-04-01T04:35:33.605Z,75.24
2023-04-01T04:36:33.405Z,74.57
2023-04-01T04:37:33.416Z,75.59
2023-04-01T04:38:33.394Z,75.33
2023-04-01T04:39:33.391Z,75.07
2023-04-01T04:40:33.384Z,75.33
2023-04-01T04:41:34.151Z,74.93
2023-04-01T04:42:33.390Z,74.61
2023-04-01T04:43:33.374Z,73.99
2023-04-01T04:44:33.401Z,75.55
2023-04-01T04:45:33.531Z,76.68
2023-04-01T04:46:33.372Z,75.32
2023-04-01T04:47:33.401Z,75.26
2023-04-01T04:48:33.329Z,75.85
2023-04-01T04:49:33.357Z,77.43
2023-04-01T04:50:33.317Z,75.14
2023-04-01T04:51:33.310Z,77.09
2023-04-01T04:52:33.318Z,76.51
2023-04-01T04:53:33.313Z,76.85
2023-04-01T04:54:33.325Z,79.06
2023-04-01T04:55:33.430Z,77.08
2023-04-01T04:56:33.291Z,78.60
2023-04-01T04:57:33.325Z,77.83
2023-04-01T04:58:33.267Z,78.37
2023-04-01T04:59:33.262Z,76.83
2023-04-01T05:00:33.254Z,77.12
2023-04-01T05:01:33.269Z,77.93
2023-04-01T05:02:33.347Z,77.62
2023-04-01T05:03:33.334Z,78.65
2023-04-01T05:04:33.223Z,78.23
2023-04-01T05:05:33.408Z,77.54
2023-04-01T05:06:33.222Z,78.38
2023-04-01T05:07:33.220Z,79.93
2023-04-01T05:08:33.205Z,79.83
2023-04-01T05:09:33.192Z,80.41
2023-04-01T05:10:33.188Z,82.16
2023-04-01T05:11:33.182Z,81.01
2023-04-01T05:12:33.184Z,82.76
2023-04-01T05:13:33.165Z,83.06
2023-04-01T05:14:33.173Z,81.38
2023-04-01T05:15:33.330Z,84.41
2023-04-01T05:16:33.161Z,83.40
2023-04-01T05:17:33.169Z,83.33
2023-04-01T05:18:33.142Z,83.56
2023-04-01T05:19:33.126Z,84.83
2023-04-01T05:20:33.128Z,82.68
2023-04-01T05:21:33.109Z,86.22
2023-04-01T05:22:33.111Z,85.95
2023-04-01T05:23:33.122Z,87.07
2023-04-01T05:24:33.101Z,84.61
2023-04-01T05:25:33.257Z,87.23
2023-04-01T05:26:33.114Z,88.23
2023-04-01T05:27:33.132Z,86.28
2023-04-01T05:28:33.145Z,87.49
2023-04-01T05:29:33.122Z,88.31
2023-04-01T05:30:33.122Z,89.65
2023-04-01T05:31:33.144Z,88.87
2023-04-01T05:32:33.187Z,89.48
2023-04-01T05:33:33.144Z,89.94
2023-04-01T05:34:33.140Z,91.16
2023-04-01T05:35:33.312Z,90.26
2023-04-01T05:36:33.147Z,93.51
2023-04-01T05:37:33.159Z,90.81
2023-04-01T05:38:33.159Z,92.80
2023-04-01T05:39:33.153Z,93.50
2023-04-01T05:40:33.157Z,92.55
2023-04-01T05:41:33.170Z,93.28
2023-04-01T05:42:33.180Z,93.65
2023-04-01T05:43:33.166Z,92.36
2023-04-01T05:44:33.201Z,93.27
2023-04-01T05:45:33.290Z,93.32
2023-04-01T05:46:33.238Z,95.27
2023-04-01T05:47:33.209Z,94.96
2023-04-01T05:48:33.183Z,97.75
2023-04-01T05:49:33.211Z,97.12
2023-04-01T05:50:33.214Z,96.37
2023-04-01T05:51:33.199Z,95.00
2023-04-01T05:52:33.192Z,94.32
2023-04-01T05:53:33.190Z,96.38
2023-04-01T05:54:33.190Z,94.88
2023-04-01T05:55:33.429Z,95.28
2023-04-01T05:56:33.225Z,95.39
2023-04-01T05:57:33.236Z,93.43
2023-04-01T05:58:33.204Z,94.43
2023-04-01T05:59:33.198Z,94.15
2023-04-01T06:00:33.213Z,95.90
2023-04-01T06:01:33.230Z,94.90
2023-04-01T06:02:33.304Z,95.44
2023-04-01T06:03:33.355Z,95.77
2023-04-01T06:04:33.268Z,96.52
2023-04-01T06:05:33.488Z,95.62
2023-04-01T06:06:33.226Z,96.40
2023-04-01T06:07:33.227Z,95.54
2023-04-01T06:08:33.230Z,96.49
2023-04-01T06:09:33.277Z,98.03
2023-04-01T06:10:33.241Z,97.22
2023-04-01T06:11:33.278Z,98.27
2023-04-01T06:12:33.275Z,98.77
2023-04-01T06:13:33.283Z,97.10
2023-04-01T06:14:33.294Z,100.44
2023-04-01T06:15:33.423Z,99.11
2023-04-01T06:16:33.306Z,98.51
2023-04-01T06:17:33.291Z,99.00
2023-04-01T06:18:33.291Z,100.16
2023-04-01T06:19:33.336Z,99.65
2023-04-01T06:20:33.360Z,100.98
2023-04-01T06:21:33.379Z,99.22
2023-04-01T06:22:33.385Z,99.54
2023-04-01T06:23:33.401Z,100.74
2023-04-01T06:24:33.438Z,101.79
2023-04-01T06:25:33.668Z,101.23
2023-04-01T06:26:33.490Z,102.45
2023-04-01T06:27:33.534Z,100.35
2023-04-01T06:28:33.585Z,100.66
2023-04-01T06:29:33.639Z,101.25
2023-04-01T06:30:33.649Z,100.59
2023-04-01T06:31:33.762Z,99.21
2023-04-01T06:32:33.861Z,98.75
2023-04-01T06:33:33.818Z,98.73
2023-04-01T06:34:33.867Z,95.64
2023-04-01T06:35:34.052Z,97.19
2023-04-01T06:36:33.930Z,98.51
2023-04-01T06:37:33.942Z,98.90
2023-04-01T06:38:33.943Z,100.73
2023-04-01T06:39:34.001Z,100.20
2023-04-01T06:40:34.023Z,101.36
2023-04-01T06:41:34.045Z,100.27
2023-04-01T06:42:34.089Z,99.95
2023-04-01T06:43:34.124Z,101.01
2023-04-01T06:44:34.174Z,103.62
2023-04-01T06:45:34.459Z,97.66
2023-04-01T06:46:34.212Z,98.80
2023-04-01T06:47:34.263Z,99.67
2023-04-01T06:48:34.290Z,101.10
2023-04-01T06:49:34.347Z,99.12
2023-04-01T06:50:34.328Z,99.41
2023-04-01T06:51:34.368Z,102.03
2023-04-01T06:52:34.397Z,102.12
2023-04-01T06:53:34.390Z,99.91
2023-04-01T06:54:34.454Z,96.69
2023-04-01T06:55:34.799Z,99.36
2023-04-01T06:56:34.498Z,101.99
2023-04-01T06:57:34.560Z,104.27
2023-04-01T06:58:34.611Z,106.33
2023-04-01T06:59:34.660Z,105.15
2023-04-01T07:00:34.728Z,103.73
2023-04-01T07:01:34.798Z,97.74
2023-04-01T07:02:34.842Z,101.30
2023-04-01T07:03:34.818Z,107.87
2023-04-01T07:04:34.858Z,107.75
2023-04-01T07:05:34.972Z,109.90
2023-04-01T07:06:34.867Z,115.40
2023-04-01T07:07:34.902Z,121.54
2023-04-01T07:08:34.913Z,128.03
2023-04-01T07:09:34.951Z,130.61
2023-04-01T07:10:35.057Z,128.89
2023-04-01T07:11:35.005Z,124.51
2023-04-01T07:12:35.039Z,120.32
2023-04-01T07:13:35.068Z,121.03
2023-04-01T07:14:35.109Z,114.63
2023-04-01T07:15:35.331Z,114.51
2023-04-01T07:16:35.229Z,111.79
2023-04-01T07:17:35.312Z,110.70
2023-04-01T07:18:35.285Z,107.13
2023-04-01T07:19:35.268Z,106.96
2023-04-01T07:20:35.294Z,103.33
2023-04-01T07:21:35.245Z,103.65
2023-04-01T07:22:35.257Z,103.52
2023-04-01T07:23:35.240Z,104.38
2023-04-01T07:24:35.253Z,105.73
2023-04-01T07:25:35.640Z,102.09
2023-04-01T07:26:35.242Z,103.72
2023-04-01T07:27:35.215Z,101.36
2023-04-01T07:28:35.377Z,97.94
2023-04-01T07:29:35.219Z,96.09
2023-04-01T07:30:35.191Z,95.42
2023-04-01T07:31:35.321Z,93.72
2023-04-01T07:32:36.289Z,91.88
2023-04-01T07:33:35.189Z,94.46
2023-04-01T07:34:35.263Z,93.42
2023-04-01T07:35:35.437Z,89.93
2023-04-01T07:36:35.154Z,89.30
2023-04-01T07:37:35.148Z,91.10
2023-04-01T07:38:35.172Z,89.93
2023-04-01T07:39:35.150Z,87.10
2023-04-01T07:40:35.165Z,88.72
2023-04-01T07:41:35.135Z,89.19
2023-04-01T07:42:35.115Z,89.23
2023-04-01T07:43:35.121Z,91.43
2023-04-01T07:44:35.112Z,89.76
2023-04-01T07:45:35.392Z,87.02
2023-04-01T07:46:35.115Z,89.52
2023-04-01T07:47:35.148Z,88.60
2023-04-01T07:48:35.083Z,82.96
2023-04-01T07:49:35.068Z,86.67
2023-04-01T07:50:35.118Z,81.87
2023-04-01T07:51:35.174Z,81.82
2023-04-01T07:52:35.223Z,86.10
2023-04-01T07:53:35.265Z,78.87
2023-04-01T07:54:35.279Z,76.78
2023-04-01T07:55:35.647Z,86.69
2023-04-01T07:56:35.303Z,88.94
2023-04-01T07:57:35.343Z,93.18
2023-04-01T07:58:35.399Z,100.54
2023-04-01T07:59:35.410Z,102.07
2023-04-01T08:00:35.496Z,115.82
2023-04-01T08:01:35.533Z,124.67
2023-04-01T08:02:35.604Z,125.82
2023-04-01T08:03:35.700Z,120.39
2023-04-01T08:04:35.666Z,119.89
2023-04-01T08:05:35.828Z,123.32
2023-04-01T08:06:35.669Z,123.55
2023-04-01T08:07:35.700Z,124.67
2023-04-01T08:08:35.712Z,124.47
2023-04-01T08:09:35.716Z,129.07
2023-04-01T08:10:35.728Z,129.54
2023-04-01T08:11:35.718Z,125.98
2023-04-01T08:12:35.756Z,125.69
2023-04-01T08:13:35.769Z,114.84
2023-04-01T08:14:35.825Z,106.94
2023-04-01T08:15:36.009Z,103.32
2023-04-01T08:16:35.993Z,95.09
2023-04-01T08:17:36.037Z,87.47
2023-04-01T08:18:36.036Z,81.82
2023-04-01T08:19:36.089Z,70.59
2023-04-01T08:20:36.155Z,71.48
2023-04-01T08:21:36.176Z,73.35
2023-04-01T08:22:36.218Z,74.21
2023-04-01T08:23:36.232Z,79.14
2023-04-01T08:24:46.479Z,76.42
2023-04-01T08:25:37.265Z,61.77
2023-04-01T08:26:36.262Z,47.35
2023-04-01T08:27:36.249Z,42.91
2023-04-01T08:28:36.254Z,33.89
2023-04-01T08:29:36.227Z,34.78
2023-04-01T08:30:36.227Z,25.11
2023-04-01T08:31:36.242Z,25.00
2023-04-01T08:32:36.264Z,24.19
2023-04-01T08:33:36.197Z,24.30
2023-04-01T08:34:36.220Z,21.50
2023-04-01T08:35:38.427Z,30.66
2023-04-01T08:36:36.444Z,25.00
2023-04-01T08:37:36.462Z,27.65
2023-04-01T08:38:36.447Z,40.88
2023-04-01T08:39:36.459Z,38.47
2023-04-01T08:40:36.480Z,23.22
2023-04-01T08:41:36.477Z,25.02
2023-04-01T08:42:36.502Z,27.85
2023-04-01T08:43:36.545Z,37.47
2023-04-01T08:44:36.583Z,44.08
2023-04-01T08:45:36.737Z,39.61
2023-04-01T08:46:36.651Z,32.65
2023-04-01T08:47:36.748Z,40.85
2023-04-01T08:48:36.758Z,45.03
2023-04-01T08:49:36.791Z,43.88
2023-04-01T08:50:36.843Z,38.03
2023-04-01T08:51:36.889Z,34.74
2023-04-01T08:52:36.975Z,32.22
2023-04-01T08:53:36.982Z,36.85
2023-04-01T08:54:37.052Z,42.58
2023-04-01T08:55:37.097Z,56.02
2023-04-01T08:56:37.159Z,51.37
2023-04-01T08:57:37.214Z,51.05
2023-04-01T08:58:37.233Z,58.32
2023-04-01T08:59:37.310Z,63.11
2023-04-01T09:00:37.344Z,59.37
2023-04-01T09:01:37.377Z,55.86
2023-04-01T09:02:37.482Z,53.61
2023-04-01T09:03:37.566Z,54.58
2023-04-01T09:04:37.597Z,62.16
2023-04-01T09:05:37.583Z,57.93
2023-04-01T09:06:37.632Z,59.12
2023-04-01T09:07:37.672Z,54.74
2023-04-01T09:08:37.708Z,46.00
2023-04-01T09:09:37.757Z,47.05
2023-04-01T09:10:37.802Z,58.18
2023-04-01T09:11:37.862Z,54.55
2023-04-01T09:12:37.904Z,53.51
2023-04-01T09:13:37.943Z,49.43
2023-04-01T09:14:37.988Z,51.89
2023-04-01T09:15:38.055Z,46.09
2023-04-01T09:16:38.048Z,50.63
2023-04-01T09:17:38.082Z,49.83
2023-04-01T09:18:38.103Z,50.47
2023-04-01T09:19:38.141Z,47.45
2023-04-01T09:20:38.177Z,54.43
2023-04-01T09:21:38.211Z,46.35
2023-04-01T09:22:38.265Z,34.09
2023-04-01T09:23:38.278Z,36.29
2023-04-01T09:24:38.273Z,44.07
2023-04-01T09:25:38.303Z,45.52
2023-04-01T09:26:38.342Z,47.36
2023-04-01T09:27:38.375Z,35.72
2023-04-01T09:28:38.387Z,55.76
2023-04-01T09:29:38.430Z,42.97
2023-04-01T09:30:38.448Z,48.74
2023-04-01T09:31:38.504Z,56.53
2023-04-01T09:32:38.539Z,51.29
2023-04-01T09:33:38.547Z,46.75
2023-04-01T09:34:38.600Z,45.51
2023-04-01T09:35:38.662Z,54.81
2023-04-01T09:36:38.652Z,56.54
2023-04-01T09:37:38.668Z,58.41
2023-04-01T09:38:38.715Z,51.16
2023-04-01T09:39:38.771Z,55.97
2023-04-01T09:40:38.763Z,53.52
2023-04-01T09:41:38.799Z,51.37
2023-04-01T09:42:38.849Z,59.43
2023-04-01T09:43:38.920Z,52.68
2023-04-01T09:44:39.130Z,43.07
2023-04-01T09:45:38.937Z,43.93
2023-04-01T09:46:39.027Z,40.06
2023-04-01T09:47:39.035Z,47.30
2023-04-01T09:48:39.012Z,53.25
2023-04-01T09:49:39.060Z,54.31
2023-04-01T09:50:39.059Z,47.40
2023-04-01T09:51:39.061Z,46.93
2023-04-01T09:52:39.076Z,47.07
2023-04-01T09:53:39.092Z,51.62
2023-04-01T09:54:39.121Z,43.41
2023-04-01T09:55:39.151Z,42.87
2023-04-01T09:56:39.161Z,32.85
2023-04-01T09:57:39.185Z,33.42
2023-04-01T09:58:43.721Z,41.55
2023-04-01T09:59:40.196Z,41.61
2023-04-01T10:00:39.196Z,42.52
2023-04-01T10:01:39.294Z,45.13
2023-04-01T10:02:39.216Z,42.53
2023-04-01T10:03:39.180Z,39.93
2023-04-01T10:04:39.180Z,53.53
2023-04-01T10:05:39.183Z,44.40
2023-04-01T10:06:39.153Z,34.34
2023-04-01T10:07:39.146Z,40.04
2023-04-01T10:08:39.119Z,30.49
2023-04-01T10:09:39.116Z,32.49
2023-04-01T10:10:39.106Z,43.73
2023-04-01T10:11:39.103Z,30.60
2023-04-01T10:12:39.091Z,44.40
2023-04-01T10:13:39.106Z,30.70
2023-04-01T10:14:39.088Z,22.79
2023-04-01T10:15:39.202Z,25.00
2023-04-01T10:16:39.174Z,22.29
2023-04-01T10:17:39.131Z,42.01
2023-04-01T10:18:39.060Z,46.31
2023-04-01T10:19:39.038Z,46.48
2023-04-01T10:20:39.046Z,41.31
2023-04-01T10:21:39.029Z,48.41
2023-04-01T10:22:39.011Z,61.31
2023-04-01T10:23:39.012Z,57.03
2023-04-01T10:24:38.997Z,45.61
2023-04-01T10:25:39.008Z,49.65
2023-04-01T10:26:39.003Z,46.48
2023-04-01T10:27:38.989Z,43.57
2023-04-01T10:28:38.964Z,48.61
2023-04-01T10:29:38.960Z,42.58
2023-04-01T10:30:38.968Z,45.94
2023-04-01T10:31:38.993Z,55.52
2023-04-01T10:32:38.985Z,36.96
2023-04-01T10:33:38.978Z,39.79
2023-04-01T10:34:38.942Z,48.77
2023-04-01T10:35:38.975Z,38.85
2023-04-01T10:36:38.915Z,34.09
2023-04-01T10:37:38.929Z,43.45
2023-04-01T10:38:38.915Z,46.12
2023-04-01T10:39:38.923Z,46.28
2023-04-01T10:40:38.916Z,47.48
2023-04-01T10:41:38.890Z,39.90
2023-04-01T10:42:38.903Z,39.91
2023-04-01T10:43:38.904Z,38.64
2023-04-01T10:44:38.864Z,52.95
2023-04-01T10:45:38.882Z,47.81
2023-04-01T10:46:38.898Z,47.97
2023-04-01T10:47:38.898Z,43.48
2023-04-01T10:48:38.890Z,42.34
2023-04-01T10:49:38.829Z,51.41
2023-04-01T10:50:38.831Z,56.33
2023-04-01T10:51:38.816Z,50.89
2023-04-01T10:52:38.826Z,58.07
2023-04-01T10:53:38.846Z,67.70
2023-04-01T10:54:38.832Z,58.57
2023-04-01T10:55:38.821Z,54.69
2023-04-01T10:56:38.850Z,47.00
2023-04-01T10:57:38.833Z,53.50
2023-04-01T10:58:38.878Z,58.66
2023-04-01T10:59:38.847Z,60.18
2023-04-01T11:00:38.847Z,50.10
2023-04-01T11:01:38.882Z,50.50
2023-04-01T11:02:38.929Z,47.50
2023-04-01T11:03:38.943Z,52.46
2023-04-01T11:04:38.838Z,44.32
2023-04-01T11:05:38.857Z,65.78
2023-04-01T11:06:38.843Z,53.19
2023-04-01T11:07:38.848Z,47.56
2023-04-01T11:08:38.861Z,50.99
2023-04-01T11:09:38.850Z,59.68
2023-04-01T11:10:38.858Z,55.87
2023-04-01T11:11:38.851Z,45.03
2023-04-01T11:12:38.840Z,43.11
2023-04-01T11:13:38.846Z,59.08
2023-04-01T11:14:38.860Z,59.24
2023-04-01T11:15:38.852Z,52.14
2023-04-01T11:16:38.888Z,63.64
2023-04-01T11:17:38.861Z,65.03
2023-04-01T11:18:38.855Z,63.46
2023-04-01T11:19:38.854Z,56.68
2023-04-01T11:20:38.874Z,56.90
2023-04-01T11:21:38.881Z,54.17
2023-04-01T11:22:38.900Z,63.39
2023-04-01T11:23:38.891Z,62.30
2023-04-01T11:24:38.912Z,69.64
2023-04-01T11:25:38.919Z,72.83
2023-04-01T11:26:38.984Z,65.55
2023-04-01T11:27:39.720Z,64.55
2023-04-01T11:28:39.002Z,68.96
2023-04-01T11:29:42.255Z,66.74
2023-04-01T11:30:40.021Z,64.43
2023-04-01T11:31:39.052Z,64.95
2023-04-01T11:32:39.126Z,62.34
2023-04-01T11:33:38.998Z,67.27
2023-04-01T11:34:38.978Z,67.76
2023-04-01T11:35:38.991Z,61.74
2023-04-01T11:36:39.071Z,63.96
2023-04-01T11:37:38.947Z,67.29
2023-04-01T11:38:38.975Z,67.08
2023-04-01T11:39:38.962Z,70.13
2023-04-01T11:40:38.943Z,68.17
2023-04-01T11:41:38.918Z,72.05
2023-04-01T11:42:38.911Z,72.96
2023-04-01T11:43:38.916Z,70.73
2023-04-01T11:44:38.896Z,68.80
2023-04-01T11:45:38.917Z,69.02
2023-04-01T11:46:38.912Z,70.80
2023-04-01T11:47:38.908Z,71.74
2023-04-01T11:48:38.914Z,64.39
2023-04-01T11:49:38.900Z,71.03
2023-04-01T11:50:38.946Z,80.47
2023-04-01T11:51:38.951Z,68.93
2023-04-01T11:52:39.009Z,75.51
2023-04-01T11:53:39.041Z,71.48
2023-04-01T11:54:39.083Z,71.75
2023-04-01T11:55:39.115Z,72.16
2023-04-01T11:56:39.155Z,78.39
2023-04-01T11:57:39.182Z,80.64
2023-04-01T11:58:39.220Z,78.47
2023-04-01T11:59:39.242Z,82.81
2023-04-01T12:00:39.287Z,86.39
2023-04-01T12:01:39.351Z,82.12
2023-04-01T12:02:39.429Z,84.34
2023-04-01T12:03:39.552Z,75.20
2023-04-01T12:04:39.519Z,84.54
2023-04-01T12:05:39.510Z,80.23
2023-04-01T12:06:39.519Z,77.87
2023-04-01T12:07:39.575Z,80.95
2023-04-01T12:08:39.613Z,78.02
2023-04-01T12:09:39.667Z,72.02
2023-04-01T12:10:39.695Z,79.75
2023-04-01T12:11:39.767Z,82.19
2023-04-01T12:12:45.309Z,77.86
2023-04-01T12:13:40.782Z,78.29
2023-04-01T12:14:39.765Z,78.33
2023-04-01T12:15:39.776Z,80.74
2023-04-01T12:16:39.829Z,82.14
2023-04-01T12:17:39.807Z,86.12
2023-04-01T12:18:39.752Z,81.88
2023-04-01T12:19:39.750Z,85.66
2023-04-01T12:20:39.744Z,88.44
2023-04-01T12:21:39.740Z,86.43
2023-04-01T12:22:39.736Z,82.14
2023-04-01T12:23:39.729Z,83.32
2023-04-01T12:24:39.770Z,88.98
2023-04-01T12:25:39.833Z,85.53
2023-04-01T12:26:39.906Z,88.19
2023-04-01T12:27:39.937Z,93.55
2023-04-01T12:28:39.987Z,95.10
2023-04-01T12:29:40.040Z,88.30
2023-04-01T12:30:40.124Z,88.24
2023-04-01T12:31:40.185Z,87.37
2023-04-01T12:32:40.240Z,106.49
2023-04-01T12:33:40.275Z,91.49
2023-04-01T12:34:40.382Z,97.00
2023-04-01T12:35:40.488Z,98.84
2023-04-01T12:36:40.449Z,94.78
2023-04-01T12:37:40.501Z,99.99
2023-04-01T12:38:40.552Z,101.45
2023-04-01T12:39:40.605Z,104.31
2023-04-01T12:40:40.927Z,107.15
2023-04-01T12:41:40.665Z,99.38
2023-04-01T12:42:40.694Z,114.04
2023-04-01T12:43:41.418Z,123.58
2023-04-01T12:44:40.759Z,117.56
2023-04-01T12:45:40.832Z,116.18
2023-04-01T12:46:40.789Z,112.08
2023-04-01T12:47:40.842Z,110.65
2023-04-01T12:48:40.837Z,119.16
2023-04-01T12:49:40.811Z,126.55
2023-04-01T12:50:40.824Z,128.09